sensor_id;sensor_type;location;lat;lon;timestamp;pressure;altitude;pressure_sealevel;temperature;humidity
60820;BME280;46641;48.904;9.126;2023-03-20T00:06:20;98813.41;;;15.85;51.20
60820;BME280;46641;48.904;9.126;2023-03-20T00:11:24;98812.13;;;15.81;51.18
60820;BME280;46641;48.904;9.126;2023-03-20T00:16:15;98801.09;;;15.78;51.17
60820;BME280;46641;48.904;9.126;2023-03-20T00:21:14;98811.66;;;15.78;51.48
60820;BME280;46641;48.904;9.126;2023-03-20T00:26:10;98812.31;;;15.80;51.28
60820;BME280;46641;48.904;9.126;2023-03-20T00:31:01;98808.34;;;15.76;51.32
60820;BME280;46641;48.904;9.126;2023-03-20T00:35:51;98819.25;;;15.73;51.34
60820;BME280;46641;48.904;9.126;2023-03-20T00:40:43;98818.44;;;15.72;51.42
60820;BME280;46641;48.904;9.126;2023-03-20T00:45:34;98810.69;;;15.71;51.37
60820;BME280;46641;48.904;9.126;2023-03-20T00:50:27;98813.50;;;15.69;51.33
60820;BME280;46641;48.904;9.126;2023-03-20T00:55:21;98817.97;;;15.69;51.39
60820;BME280;46641;48.904;9.126;2023-03-20T01:00:20;98818.16;;;15.67;51.51
60820;BME280;46641;48.904;9.126;2023-03-20T01:05:12;98824.56;;;15.64;51.39
60820;BME280;46641;48.904;9.126;2023-03-20T01:10:04;98829.16;;;15.62;51.67
60820;BME280;46641;48.904;9.126;2023-03-20T01:14:56;98819.81;;;15.60;51.53
60820;BME280;46641;48.904;9.126;2023-03-20T01:19:47;98821.44;;;15.61;51.46
60820;BME280;46641;48.904;9.126;2023-03-20T01:24:37;98828.34;;;15.62;51.41
60820;BME280;46641;48.904;9.126;2023-03-20T01:29:27;98827.06;;;15.58;51.54
60820;BME280;46641;48.904;9.126;2023-03-20T01:34:18;98822.94;;;15.55;51.57
60820;BME280;46641;48.904;9.126;2023-03-20T01:39:10;98824.09;;;15.53;51.68
60820;BME280;46641;48.904;9.126;2023-03-20T01:44:12;98833.69;;;15.54;51.83
60820;BME280;46641;48.904;9.126;2023-03-20T01:54:21;98835.66;;;15.52;51.69
60820;BME280;46641;48.904;9.126;2023-03-20T01:59:16;98839.44;;;15.49;51.77
60820;BME280;46641;48.904;9.126;2023-03-20T02:04:09;98851.81;;;15.49;51.67
60820;BME280;46641;48.904;9.126;2023-03-20T02:09:00;98860.72;;;15.48;51.66
60820;BME280;46641;48.904;9.126;2023-03-20T02:13:53;98860.25;;;15.44;51.78
60820;BME280;46641;48.904;9.126;2023-03-20T02:18:46;98860.59;;;15.41;51.79
60820;BME280;46641;48.904;9.126;2023-03-20T02:39:01;98857.47;;;15.37;51.92
60820;BME280;46641;48.904;9.126;2023-03-20T02:44:00;98851.34;;;15.37;51.95
60820;BME280;46641;48.904;9.126;2023-03-20T02:48:55;98848.91;;;15.35;51.79
60820;BME280;46641;48.904;9.126;2023-03-20T02:53:58;98860.78;;;15.31;51.93
60820;BME280;46641;48.904;9.126;2023-03-20T02:58:59;98853.84;;;15.30;51.86
60820;BME280;46641;48.904;9.126;2023-03-20T03:03:55;98865.25;;;15.31;51.78
60820;BME280;46641;48.904;9.126;2023-03-20T03:08:49;98861.13;;;15.28;51.80
60820;BME280;46641;48.904;9.126;2023-03-20T03:13:45;98861.13;;;15.28;51.83
60820;BME280;46641;48.904;9.126;2023-03-20T03:18:38;98867.53;;;15.26;51.92
60820;BME280;46641;48.904;9.126;2023-03-20T03:23:39;98868.22;;;15.28;51.87
60820;BME280;46641;48.904;9.126;2023-03-20T03:28:39;98866.53;;;15.27;51.91
60820;BME280;46641;48.904;9.126;2023-03-20T03:33:35;98875.78;;;15.23;52.06
60820;BME280;46641;48.904;9.126;2023-03-20T03:38:31;98872.34;;;15.22;52.06
60820;BME280;46641;48.904;9.126;2023-03-20T03:43:33;98871.66;;;15.20;52.13
60820;BME280;46641;48.904;9.126;2023-03-20T03:48:47;98875.47;;;15.17;51.83
60820;BME280;46641;48.904;9.126;2023-03-20T03:53:41;98882.72;;;15.15;52.07
60820;BME280;46641;48.904;9.126;2023-03-20T03:58:47;98874.00;;;15.15;52.17
60820;BME280;46641;48.904;9.126;2023-03-20T04:03:44;98888.50;;;15.11;52.02
60820;BME280;46641;48.904;9.126;2023-03-20T04:08:35;98885.84;;;15.11;52.10
60820;BME280;46641;48.904;9.126;2023-03-20T04:13:26;98886.03;;;15.09;52.20
60820;BME280;46641;48.904;9.126;2023-03-20T04:18:17;98888.81;;;15.08;52.07
60820;BME280;46641;48.904;9.126;2023-03-20T04:23:08;98883.72;;;15.06;52.25
60820;BME280;46641;48.904;9.126;2023-03-20T04:27:58;98880.28;;;15.06;52.31
60820;BME280;46641;48.904;9.126;2023-03-20T04:32:49;98881.91;;;15.07;52.24
60820;BME280;46641;48.904;9.126;2023-03-20T04:37:39;98881.28;;;15.05;52.26
60820;BME280;46641;48.904;9.126;2023-03-20T04:42:29;98881.28;;;15.05;52.17
60820;BME280;46641;48.904;9.126;2023-03-20T04:47:20;98878.78;;;15.03;52.13
60820;BME280;46641;48.904;9.126;2023-03-20T04:52:10;98884.25;;;15.02;52.23
60820;BME280;46641;48.904;9.126;2023-03-20T04:57:00;98907.78;;;15.03;52.00
60820;BME280;46641;48.904;9.126;2023-03-20T05:01:51;98901.03;;;15.01;52.19
60820;BME280;46641;48.904;9.126;2023-03-20T05:06:41;98908.13;;;15.00;52.16
60820;BME280;46641;48.904;9.126;2023-03-20T05:11:32;98906.47;;;14.99;52.24
60820;BME280;46641;48.904;9.126;2023-03-20T05:16:23;98918.66;;;15.00;52.15
60820;BME280;46641;48.904;9.126;2023-03-20T05:21:13;98921.47;;;14.99;52.17
60820;BME280;46641;48.904;9.126;2023-03-20T05:26:04;98915.53;;;14.96;52.15
60820;BME280;46641;48.904;9.126;2023-03-20T05:30:54;98906.97;;;14.94;52.38
60820;BME280;46641;48.904;9.126;2023-03-20T05:35:45;98902.69;;;14.93;52.25
60820;BME280;46641;48.904;9.126;2023-03-20T05:40:35;98911.59;;;14.92;52.54
60820;BME280;46641;48.904;9.126;2023-03-20T05:45:25;98921.31;;;14.92;52.50
60820;BME280;46641;48.904;9.126;2023-03-20T05:50:16;98925.72;;;14.91;52.47
60820;BME280;46641;48.904;9.126;2023-03-20T05:55:06;98930.19;;;14.91;52.45
60820;BME280;46641;48.904;9.126;2023-03-20T05:59:57;98932.00;;;14.90;52.42
60820;BME280;46641;48.904;9.126;2023-03-20T06:04:47;98933.00;;;14.89;52.39
60820;BME280;46641;48.904;9.126;2023-03-20T06:09:38;98947.19;;;14.88;52.50
60820;BME280;46641;48.904;9.126;2023-03-20T06:14:28;98950.13;;;14.85;52.44
60820;BME280;46641;48.904;9.126;2023-03-20T06:19:19;98947.66;;;14.76;53.75
60820;BME280;46641;48.904;9.126;2023-03-20T06:24:10;98947.50;;;14.69;54.16
60820;BME280;46641;48.904;9.126;2023-03-20T06:29:01;98941.06;;;14.63;54.09
60820;BME280;46641;48.904;9.126;2023-03-20T06:33:52;98942.03;;;14.12;56.53
60820;BME280;46641;48.904;9.126;2023-03-20T06:38:42;98934.22;;;14.44;54.74
60820;BME280;46641;48.904;9.126;2023-03-20T06:43:33;98939.56;;;14.61;54.38
60820;BME280;46641;48.904;9.126;2023-03-20T06:48:23;98941.38;;;14.68;53.91
60820;BME280;46641;48.904;9.126;2023-03-20T06:53:13;98938.25;;;14.73;53.80
60820;BME280;46641;48.904;9.126;2023-03-20T06:58:04;98942.53;;;14.74;53.77
60820;BME280;46641;48.904;9.126;2023-03-20T07:02:54;98947.81;;;14.74;53.66
60820;BME280;46641;48.904;9.126;2023-03-20T07:07:45;98962.63;;;14.75;53.72
60820;BME280;46641;48.904;9.126;2023-03-20T07:12:35;98961.81;;;14.75;53.70
60820;BME280;46641;48.904;9.126;2023-03-20T07:17:26;98979.28;;;14.76;53.77
60820;BME280;46641;48.904;9.126;2023-03-20T07:22:20;98979.91;;;14.78;53.44
60820;BME280;46641;48.904;9.126;2023-03-20T07:27:11;98986.00;;;14.78;53.65
60820;BME280;46641;48.904;9.126;2023-03-20T07:32:02;98989.00;;;14.83;53.44
60820;BME280;46641;48.904;9.126;2023-03-20T07:36:52;98985.03;;;14.87;53.43
60820;BME280;46641;48.904;9.126;2023-03-20T07:41:42;98984.22;;;14.87;53.19
60820;BME280;46641;48.904;9.126;2023-03-20T07:46:33;98983.22;;;14.88;53.21
60820;BME280;46641;48.904;9.126;2023-03-20T07:51:24;98985.72;;;14.89;53.32
60820;BME280;46641;48.904;9.126;2023-03-20T07:56:14;98979.31;;;14.92;53.31
60820;BME280;46641;48.904;9.126;2023-03-20T08:01:04;98983.41;;;14.94;53.29
60820;BME280;46641;48.904;9.126;2023-03-20T08:05:55;98979.78;;;14.95;53.42
60820;BME280;46641;48.904;9.126;2023-03-20T08:10:45;98979.47;;;14.99;53.03
60820;BME280;46641;48.904;9.126;2023-03-20T08:15:35;98989.69;;;15.02;53.24
60820;BME280;46641;48.904;9.126;2023-03-20T08:20:25;98985.06;;;15.04;53.11
60820;BME280;46641;48.904;9.126;2023-03-20T08:25:16;98998.72;;;15.07;53.05
60820;BME280;46641;48.904;9.126;2023-03-20T08:30:07;98987.22;;;15.08;53.20
60820;BME280;46641;48.904;9.126;2023-03-20T08:34:58;98986.88;;;15.11;52.99
60820;BME280;46641;48.904;9.126;2023-03-20T08:39:49;98989.19;;;15.14;52.85
60820;BME280;46641;48.904;9.126;2023-03-20T08:44:39;98975.00;;;15.15;52.94
60820;BME280;46641;48.904;9.126;2023-03-20T08:49:30;98987.06;;;15.18;52.96
60820;BME280;46641;48.904;9.126;2023-03-20T08:54:20;98987.69;;;15.20;52.75
60820;BME280;46641;48.904;9.126;2023-03-20T08:59:11;98978.63;;;15.23;52.88
60820;BME280;46641;48.904;9.126;2023-03-20T09:04:01;98992.97;;;15.28;52.60
60820;BME280;46641;48.904;9.126;2023-03-20T09:08:53;98993.47;;;15.32;52.67
60820;BME280;46641;48.904;9.126;2023-03-20T09:13:43;98996.25;;;15.38;52.46
60820;BME280;46641;48.904;9.126;2023-03-20T09:18:34;98999.88;;;15.46;52.37
60820;BME280;46641;48.904;9.126;2023-03-20T09:23:25;98989.66;;;15.51;52.37
60820;BME280;46641;48.904;9.126;2023-03-20T09:28:15;98996.91;;;15.57;52.24
60820;BME280;46641;48.904;9.126;2023-03-20T09:33:05;98999.84;;;15.62;52.30
60820;BME280;46641;48.904;9.126;2023-03-20T09:37:56;98992.41;;;15.65;52.33
60820;BME280;46641;48.904;9.126;2023-03-20T09:43:04;98997.88;;;15.72;52.11
60820;BME280;46641;48.904;9.126;2023-03-20T09:48:05;98998.53;;;15.74;52.20
60820;BME280;46641;48.904;9.126;2023-03-20T09:53:05;99000.50;;;15.80;52.17
60820;BME280;46641;48.904;9.126;2023-03-20T09:58:04;99011.56;;;15.84;52.26
60820;BME280;46641;48.904;9.126;2023-03-20T10:03:00;99000.31;;;15.90;52.12
60820;BME280;46641;48.904;9.126;2023-03-20T10:07:56;99006.09;;;15.94;51.71
60820;BME280;46641;48.904;9.126;2023-03-20T10:13:21;99003.09;;;15.97;52.25
60820;BME280;46641;48.904;9.126;2023-03-20T10:18:23;99001.63;;;16.02;52.29
60820;BME280;46641;48.904;9.126;2023-03-20T10:23:46;99006.72;;;16.04;52.21
60820;BME280;46641;48.904;9.126;2023-03-20T10:28:45;99008.81;;;16.08;52.39
60820;BME280;46641;48.904;9.126;2023-03-20T10:39:00;99006.31;;;16.23;52.05
60820;BME280;46641;48.904;9.126;2023-03-20T10:43:54;99002.16;;;16.29;52.06
60820;BME280;46641;48.904;9.126;2023-03-20T10:48:49;98997.03;;;16.35;52.03
60820;BME280;46641;48.904;9.126;2023-03-20T10:53:48;98998.16;;;16.41;51.92
60820;BME280;46641;48.904;9.126;2023-03-20T10:58:43;98992.16;;;16.08;50.53
60820;BME280;46641;48.904;9.126;2023-03-20T11:03:36;98993.94;;;14.94;54.56
60820;BME280;46641;48.904;9.126;2023-03-20T11:08:33;98999.47;;;14.59;55.13
60820;BME280;46641;48.904;9.126;2023-03-20T11:13:41;99001.47;;;14.65;55.57
60820;BME280;46641;48.904;9.126;2023-03-20T11:18:33;98998.38;;;14.78;55.61
60820;BME280;46641;48.904;9.126;2023-03-20T11:23:32;98998.91;;;15.22;54.56
60820;BME280;46641;48.904;9.126;2023-03-20T11:33:26;98994.94;;;15.10;54.80
60820;BME280;46641;48.904;9.126;2023-03-20T11:38:21;98988.47;;;15.86;52.83
60820;BME280;46641;48.904;9.126;2023-03-20T11:43:13;98985.50;;;16.28;51.80
60820;BME280;46641;48.904;9.126;2023-03-20T11:48:05;98980.41;;;16.50;51.51
60820;BME280;46641;48.904;9.126;2023-03-20T11:53:16;98970.09;;;16.63;51.35
60820;BME280;46641;48.904;9.126;2023-03-20T11:58:13;98974.34;;;16.72;51.22
60820;BME280;46641;48.904;9.126;2023-03-20T12:03:44;98961.94;;;16.81;51.15
60820;BME280;46641;48.904;9.126;2023-03-20T12:08:38;98960.03;;;16.90;51.39
60820;BME280;46641;48.904;9.126;2023-03-20T12:13:36;98959.78;;;16.99;51.05
60820;BME280;46641;48.904;9.126;2023-03-20T12:18:42;98955.25;;;17.08;51.22
60820;BME280;46641;48.904;9.126;2023-03-20T12:23:46;98952.56;;;17.16;51.25
60820;BME280;46641;48.904;9.126;2023-03-20T12:28:44;98942.91;;;17.23;51.67
60820;BME280;46641;48.904;9.126;2023-03-20T12:33:42;98941.47;;;16.98;50.57
60820;BME280;46641;48.904;9.126;2023-03-20T12:38:33;98938.03;;;17.12;51.63
60820;BME280;46641;48.904;9.126;2023-03-20T12:43:34;98936.91;;;17.29;50.78
60820;BME280;46641;48.904;9.126;2023-03-20T12:48:52;98927.50;;;17.42;50.82
60820;BME280;46641;48.904;9.126;2023-03-20T13:10:11;98925.34;;;17.60;51.47
60820;BME280;46641;48.904;9.126;2023-03-20T13:19:41;98903.69;;;17.57;51.12
60820;BME280;46641;48.904;9.126;2023-03-20T13:24:47;98896.94;;;17.69;50.81
60820;BME280;46641;48.904;9.126;2023-03-20T13:29:46;98895.53;;;17.81;50.89
60820;BME280;46641;48.904;9.126;2023-03-20T13:39:59;98887.09;;;17.92;50.15
60820;BME280;46641;48.904;9.126;2023-03-20T13:45:00;98884.72;;;17.97;50.77
60820;BME280;46641;48.904;9.126;2023-03-20T13:50:24;98877.75;;;17.96;50.77
60820;BME280;46641;48.904;9.126;2023-03-20T13:55:31;98867.00;;;17.98;50.05
60820;BME280;46641;48.904;9.126;2023-03-20T14:00:38;98872.91;;;18.00;50.50
60820;BME280;46641;48.904;9.126;2023-03-20T14:05:38;98856.03;;;18.01;50.58
60820;BME280;46641;48.904;9.126;2023-03-20T14:15:20;98851.19;;;17.90;49.71
60820;BME280;46641;48.904;9.126;2023-03-20T14:20:22;98853.97;;;17.22;50.74
60820;BME280;46641;48.904;9.126;2023-03-20T14:25:19;98847.28;;;17.71;50.62
60820;BME280;46641;48.904;9.126;2023-03-20T14:35:28;98848.13;;;17.42;46.86
60820;BME280;46641;48.904;9.126;2023-03-20T14:40:21;98848.31;;;17.55;45.84
60820;BME280;46641;48.904;9.126;2023-03-20T15:00:45;98843.38;;;17.82;47.27
60820;BME280;46641;48.904;9.126;2023-03-20T15:05:37;98837.03;;;17.97;47.59
60820;BME280;46641;48.904;9.126;2023-03-20T15:10:28;98836.31;;;18.04;47.05
60820;BME280;46641;48.904;9.126;2023-03-20T15:15:24;98839.41;;;18.07;46.78
60820;BME280;46641;48.904;9.126;2023-03-20T15:20:26;98831.44;;;18.07;46.96
60820;BME280;46641;48.904;9.126;2023-03-20T15:25:21;98838.81;;;18.12;47.17
60820;BME280;46641;48.904;9.126;2023-03-20T15:30:17;98829.84;;;18.13;46.74
60820;BME280;46641;48.904;9.126;2023-03-20T15:35:17;98842.28;;;18.12;46.91
60820;BME280;46641;48.904;9.126;2023-03-20T15:40:11;98840.00;;;18.09;47.06
60820;BME280;46641;48.904;9.126;2023-03-20T15:45:15;98838.16;;;18.10;47.10
60820;BME280;46641;48.904;9.126;2023-03-20T15:50:12;98837.19;;;18.11;47.10
60820;BME280;46641;48.904;9.126;2023-03-20T15:55:11;98840.00;;;18.09;46.48
60820;BME280;46641;48.904;9.126;2023-03-20T16:00:08;98841.03;;;18.08;47.22
60820;BME280;46641;48.904;9.126;2023-03-20T16:05:04;98842.41;;;18.04;47.41
60820;BME280;46641;48.904;9.126;2023-03-20T16:09:58;98841.78;;;18.02;47.63
60820;BME280;46641;48.904;9.126;2023-03-20T16:14:49;98839.94;;;18.03;47.50
60820;BME280;46641;48.904;9.126;2023-03-20T16:19:40;98846.41;;;18.00;47.84
60820;BME280;46641;48.904;9.126;2023-03-20T16:24:35;98846.78;;;17.97;47.49
60820;BME280;46641;48.904;9.126;2023-03-20T16:29:27;98834.56;;;17.96;47.59
60820;BME280;46641;48.904;9.126;2023-03-20T16:34:22;98831.47;;;17.92;47.84
60820;BME280;46641;48.904;9.126;2023-03-20T16:39:21;98834.78;;;17.94;47.44
60820;BME280;46641;48.904;9.126;2023-03-20T16:44:17;98836.97;;;17.91;47.61
60820;BME280;46641;48.904;9.126;2023-03-20T16:54:34;98819.19;;;17.85;47.51
60820;BME280;46641;48.904;9.126;2023-03-20T16:59:25;98822.81;;;17.84;47.44
60820;BME280;46641;48.904;9.126;2023-03-20T17:04:35;98829.78;;;17.85;47.07
60820;BME280;46641;48.904;9.126;2023-03-20T17:09:27;98837.72;;;17.85;47.26
60820;BME280;46641;48.904;9.126;2023-03-20T17:14:19;98827.13;;;17.85;47.37
60820;BME280;46641;48.904;9.126;2023-03-20T17:19:16;98826.47;;;17.83;47.09
60820;BME280;46641;48.904;9.126;2023-03-20T17:24:07;98832.78;;;17.82;47.27
60820;BME280;46641;48.904;9.126;2023-03-20T17:28:57;98844.72;;;17.78;47.49
60820;BME280;46641;48.904;9.126;2023-03-20T17:33:47;98840.78;;;17.73;47.52
60820;BME280;46641;48.904;9.126;2023-03-20T17:38:38;98836.88;;;17.69;47.50
60820;BME280;46641;48.904;9.126;2023-03-20T17:43:28;98854.16;;;17.65;47.63
60820;BME280;46641;48.904;9.126;2023-03-20T17:48:19;98855.50;;;17.61;47.75
60820;BME280;46641;48.904;9.126;2023-03-20T17:53:14;98854.69;;;17.61;47.50
60820;BME280;46641;48.904;9.126;2023-03-20T17:58:04;98847.94;;;17.58;48.27
60820;BME280;46641;48.904;9.126;2023-03-20T18:02:55;98861.34;;;17.57;47.94
60820;BME280;46641;48.904;9.126;2023-03-20T18:07:45;98865.47;;;17.44;47.00
60820;BME280;46641;48.904;9.126;2023-03-20T18:12:36;98867.03;;;16.63;49.02
60820;BME280;46641;48.904;9.126;2023-03-20T18:17:27;98866.00;;;17.10;48.19
60820;BME280;46641;48.904;9.126;2023-03-20T18:22:18;98874.38;;;17.28;47.71
60820;BME280;46641;48.904;9.126;2023-03-20T18:27:09;98881.25;;;17.38;47.49
60820;BME280;46641;48.904;9.126;2023-03-20T18:31:59;98883.72;;;17.39;47.50
60820;BME280;46641;48.904;9.126;2023-03-20T18:36:50;98871.66;;;17.37;47.39
60820;BME280;46641;48.904;9.126;2023-03-20T18:41:40;98884.09;;;17.36;47.46
60820;BME280;46641;48.904;9.126;2023-03-20T18:46:31;98877.31;;;17.34;47.49
60820;BME280;46641;48.904;9.126;2023-03-20T18:51:21;98884.16;;;17.28;47.93
60820;BME280;46641;48.904;9.126;2023-03-20T18:56:20;98882.69;;;17.25;47.45
60820;BME280;46641;48.904;9.126;2023-03-20T19:01:11;98877.78;;;17.22;47.87
60820;BME280;46641;48.904;9.126;2023-03-20T19:06:01;98879.78;;;17.20;47.90
60820;BME280;46641;48.904;9.126;2023-03-20T19:10:52;98875.66;;;17.18;47.85
60820;BME280;46641;48.904;9.126;2023-03-20T19:15:43;98869.91;;;17.14;48.32
60820;BME280;46641;48.904;9.126;2023-03-20T19:20:45;98874.56;;;17.12;47.87
60820;BME280;46641;48.904;9.126;2023-03-20T19:25:37;98875.94;;;17.08;48.25
60820;BME280;46641;48.904;9.126;2023-03-20T19:30:37;98865.09;;;17.03;47.78
60820;BME280;46641;48.904;9.126;2023-03-20T19:35:29;98873.84;;;17.03;48.63
60820;BME280;46641;48.904;9.126;2023-03-20T19:40:28;98874.00;;;17.02;47.96
60820;BME280;46641;48.904;9.126;2023-03-20T19:45:20;98875.38;;;16.98;48.42
60820;BME280;46641;48.904;9.126;2023-03-20T19:55:12;98865.16;;;16.95;48.40
60820;BME280;46641;48.904;9.126;2023-03-20T20:00:03;98858.22;;;16.94;48.56
60820;BME280;46641;48.904;9.126;2023-03-20T20:04:53;98858.38;;;16.92;48.56
60820;BME280;46641;48.904;9.126;2023-03-20T20:09:44;98852.63;;;16.89;48.50
60820;BME280;46641;48.904;9.126;2023-03-20T20:14:34;98866.69;;;16.89;48.51
60820;BME280;46641;48.904;9.126;2023-03-20T20:19:24;98867.22;;;16.85;48.69
60820;BME280;46641;48.904;9.126;2023-03-20T20:24:16;98867.75;;;16.80;48.77
60820;BME280;46641;48.904;9.126;2023-03-20T20:29:06;98870.38;;;16.80;48.71
60820;BME280;46641;48.904;9.126;2023-03-20T20:33:57;98864.63;;;16.76;48.76
60820;BME280;46641;48.904;9.126;2023-03-20T20:38:47;98869.63;;;16.71;48.82
60820;BME280;46641;48.904;9.126;2023-03-20T20:43:37;98863.69;;;16.69;48.88
60820;BME280;46641;48.904;9.126;2023-03-20T20:48:28;98866.50;;;16.68;48.48
60820;BME280;46641;48.904;9.126;2023-03-20T20:53:18;98866.06;;;16.64;48.96
60820;BME280;46641;48.904;9.126;2023-03-20T20:58:08;98873.97;;;16.64;48.85
60820;BME280;46641;48.904;9.126;2023-03-20T21:02:59;98874.59;;;16.66;49.08
60820;BME280;46641;48.904;9.126;2023-03-20T21:07:49;98871.34;;;16.64;48.75
60820;BME280;46641;48.904;9.126;2023-03-20T21:12:41;98875.41;;;16.67;48.89
60820;BME280;46641;48.904;9.126;2023-03-20T21:17:32;98882.38;;;16.68;48.93
60820;BME280;46641;48.904;9.126;2023-03-20T21:22:23;98866.06;;;16.64;48.69
60820;BME280;46641;48.904;9.126;2023-03-20T21:27:14;98871.50;;;16.63;48.74
60820;BME280;46641;48.904;9.126;2023-03-20T21:32:06;98872.66;;;16.60;48.87
60820;BME280;46641;48.904;9.126;2023-03-20T21:36:58;98864.94;;;16.58;49.13
60820;BME280;46641;48.904;9.126;2023-03-20T21:41:49;98856.34;;;16.56;48.94
60820;BME280;46641;48.904;9.126;2023-03-20T21:46:40;98869.41;;;16.58;48.91
60820;BME280;46641;48.904;9.126;2023-03-20T21:51:30;98858.53;;;16.53;49.10
60820;BME280;46641;48.904;9.126;2023-03-20T21:56:21;98864.16;;;16.50;49.09
60820;BME280;46641;48.904;9.126;2023-03-20T22:01:11;98867.34;;;16.45;49.24
60820;BME280;46641;48.904;9.126;2023-03-20T22:06:07;98867.22;;;16.39;49.39
60820;BME280;46641;48.904;9.126;2023-03-20T22:10:58;98875.16;;;16.39;49.54
60820;BME280;46641;48.904;9.126;2023-03-20T22:15:48;98870.38;;;16.34;49.62
60820;BME280;46641;48.904;9.126;2023-03-20T22:20:38;98864.63;;;16.30;50.07
60820;BME280;46641;48.904;9.126;2023-03-20T22:25:28;98863.81;;;16.30;49.69
60820;BME280;46641;48.904;9.126;2023-03-20T22:30:19;98868.94;;;16.31;49.58
60820;BME280;46641;48.904;9.126;2023-03-20T22:35:10;98864.00;;;16.28;49.69
60820;BME280;46641;48.904;9.126;2023-03-20T22:40:00;98864.16;;;16.27;49.77
60820;BME280;46641;48.904;9.126;2023-03-20T22:44:50;98862.53;;;16.26;49.86
60820;BME280;46641;48.904;9.126;2023-03-20T22:49:42;98870.59;;;16.24;49.83
60820;BME280;46641;48.904;9.126;2023-03-20T22:54:32;98864.97;;;16.27;49.57
60820;BME280;46641;48.904;9.126;2023-03-20T22:59:23;98862.53;;;16.26;49.80
60820;BME280;46641;48.904;9.126;2023-03-20T23:04:13;98852.44;;;16.29;49.51
60820;BME280;46641;48.904;9.126;2023-03-20T23:09:03;98847.97;;;16.30;49.75
60820;BME280;46641;48.904;9.126;2023-03-20T23:13:54;98841.03;;;16.29;49.63
60820;BME280;46641;48.904;9.126;2023-03-20T23:18:45;98833.47;;;16.26;49.67
60820;BME280;46641;48.904;9.126;2023-03-20T23:23:35;98843.84;;;16.27;49.65
60820;BME280;46641;48.904;9.126;2023-03-20T23:28:26;98843.84;;;16.27;49.74
60820;BME280;46641;48.904;9.126;2023-03-20T23:33:16;98840.56;;;16.25;49.83
60820;BME280;46641;48.904;9.126;2023-03-20T23:38:07;98831.34;;;16.21;49.66
60820;BME280;46641;48.904;9.126;2023-03-20T23:42:57;98829.59;;;16.13;49.72
60820;BME280;46641;48.904;9.126;2023-03-20T23:47:47;98827.47;;;16.09;50.02
60820;BME280;46641;48.904;9.126;2023-03-20T23:52:38;98836.38;;;16.08;49.47
60820;BME280;46641;48.904;9.126;2023-03-20T23:57:28;98831.28;;;16.06;49.97
